Time;durP1;ratioP1;P1;durP2;ratioP2;P2;SDS_P1;SDS_P2;PMS_P1;PMS_P2;Temp;Humidity;BMP_temperature;BMP_pressure;BME280_temperature;BME280_humidity;BME280_pressure;Samples;Min_cycle;Max_cycle;Signal;HPM_P1;HPM_P2
2023/07/04 00:01:24;;;;;;;13.45;3.95;;;14.00;99.90;;;;;;5040325;28;20124;-57
2023/07/04 00:04:07;;;;;;;18.70;4.78;;;14.00;99.90;;;;;;5054873;28;20041;-58
2023/07/04 00:06:36;;;;;;;11.48;4.60;;;14.00;99.90;;;;;;5059521;28;20079;-60
2023/07/04 00:09:02;;;;;;;16.40;4.35;;;14.10;99.90;;;;;;5052486;28;20048;-60
2023/07/04 00:11:29;;;;;;;;;;;14.10;99.90;;;;;;5059128;28;20041;-58
2023/07/04 00:13:55;;;;;;;9.90;3.38;;;14.10;99.90;;;;;;5049690;28;20037;-54
2023/07/04 00:16:21;;;;;;;;;;;14.10;99.90;;;;;;5048873;28;20153;-60
2023/07/04 00:18:46;;;;;;;16.48;4.10;;;14.10;99.90;;;;;;5038300;28;20019;-58
2023/07/04 00:21:14;;;;;;;;;;;14.10;99.90;;;;;;5047422;28;20052;-55
2023/07/04 00:23:42;;;;;;;;;;;14.10;99.90;;;;;;5037344;28;20724;-60
2023/07/04 00:26:08;;;;;;;9.30;3.70;;;14.10;99.90;;;;;;5043235;28;19936;-55
2023/07/04 00:28:38;;;;;;;10.88;3.17;;;14.10;99.90;;;;;;5044895;28;20045;-57
2023/07/04 00:31:06;;;;;;;10.30;3.85;;;14.00;99.90;;;;;;5042170;28;20045;-55
2023/07/04 00:33:33;;;;;;;21.77;4.00;;;14.00;99.90;;;;;;5040507;28;20040;-58
2023/07/04 00:36:04;;;;;;;15.50;3.70;;;14.00;99.90;;;;;;5039841;28;20127;-60
2023/07/04 00:38:34;;;;;;;18.67;3.20;;;14.10;99.90;;;;;;5044014;28;20064;-57
2023/07/04 00:41:14;;;;;;;9.32;3.38;;;14.00;99.90;;;;;;5041259;28;20045;-60
2023/07/04 00:43:57;;;;;;;13.00;3.67;;;14.00;99.90;;;;;;5039627;28;20139;-60
2023/07/04 00:46:36;;;;;;;9.57;3.25;;;14.00;99.90;;;;;;5042679;28;20052;-56
2023/07/04 00:49:03;;;;;;;10.70;3.20;;;14.00;99.90;;;;;;5039013;28;20189;-55
2023/07/04 00:51:31;;;;;;;9.02;2.80;;;14.00;99.90;;;;;;5043636;28;20048;-52
2023/07/04 00:53:58;;;;;;;7.88;2.72;;;14.00;99.90;;;;;;5039695;28;20053;-58
2023/07/04 00:56:28;;;;;;;12.27;3.40;;;14.00;99.90;;;;;;5043659;28;20059;-59
2023/07/04 00:58:59;;;;;;;12.50;3.60;;;13.90;99.90;;;;;;5037904;28;20144;-58
2023/07/04 01:01:25;;;;;;;13.00;3.47;;;14.00;99.90;;;;;;5041139;28;20051;-59
2023/07/04 01:03:53;;;;;;;14.90;2.60;;;14.00;99.90;;;;;;5039751;28;20487;-59
2023/07/04 01:06:35;;;;;;;9.57;2.60;;;14.00;99.90;;;;;;5034748;28;20033;-57
2023/07/04 01:09:05;;;;;;;9.57;3.15;;;13.90;99.90;;;;;;5036505;28;20497;-55
2023/07/04 01:11:34;;;;;;;11.25;3.00;;;13.90;99.90;;;;;;5042482;28;20033;-60
2023/07/04 01:14:05;;;;;;;9.60;3.08;;;14.00;99.90;;;;;;5041584;28;20405;-56
2023/07/04 01:16:31;;;;;;;8.23;2.70;;;13.90;99.90;;;;;;5041904;28;20353;-52
2023/07/04 01:18:57;;;;;;;;;;;13.90;99.90;;;;;;5039993;28;20473;-52
2023/07/04 01:21:27;;;;;;;8.68;3.08;;;13.90;99.90;;;;;;5045492;28;20011;-54
2023/07/04 01:24:08;;;;;;;14.32;3.15;;;13.90;99.90;;;;;;5038037;28;20156;-57
2023/07/04 01:26:37;;;;;;;23.00;3.40;;;13.90;99.90;;;;;;5035520;28;20343;-58
2023/07/04 01:29:07;;;;;;;8.60;2.58;;;13.80;99.90;;;;;;5038986;28;20065;-56
2023/07/04 01:31:35;;;;;;;14.65;3.45;;;13.90;99.90;;;;;;5040875;28;20061;-55
2023/07/04 01:34:04;;;;;;;10.43;3.60;;;13.90;99.90;;;;;;5042661;28;20048;-59
2023/07/04 01:36:34;;;;;;;10.80;2.75;;;13.90;99.90;;;;;;5042549;28;20103;-55
2023/07/04 01:39:00;;;;;;;14.68;3.38;;;13.90;99.90;;;;;;5036275;28;21021;-54
2023/07/04 01:41:28;;;;;;;10.43;3.08;;;13.80;99.90;;;;;;5041074;28;20052;-58
2023/07/04 01:43:59;;;;;;;7.38;2.70;;;13.80;99.90;;;;;;5039265;28;20123;-57
2023/07/04 01:46:25;;;;;;;10.05;3.08;;;13.80;99.90;;;;;;5040834;28;20052;-58
2023/07/04 01:48:51;;;;;;;;;;;13.80;99.90;;;;;;5041661;28;20037;-56
2023/07/04 01:51:29;;;;;;;12.45;2.80;;;13.80;99.90;;;;;;5042884;28;20012;-59
2023/07/04 01:53:55;;;;;;;18.13;3.40;;;13.80;99.90;;;;;;5036908;28;20483;-58
2023/07/04 01:56:21;;;;;;;7.78;2.70;;;13.80;99.90;;;;;;5041732;28;20156;-61
2023/07/04 01:58:47;;;;;;;;;;;13.80;99.90;;;;;;5040022;28;20120;-60
2023/07/04 02:01:12;;;;;;;11.00;2.97;;;13.70;99.90;;;;;;5041587;28;19936;-56
2023/07/04 02:03:38;;;;;;;11.60;3.00;;;13.70;99.90;;;;;;5039457;28;20179;-57
2023/07/04 02:06:03;;;;;;;;;;;13.70;99.90;;;;;;5042560;28;20443;-57
2023/07/04 02:08:29;;;;;;;9.55;2.67;;;13.70;99.90;;;;;;5037988;28;19921;-58
2023/07/04 02:10:55;;;;;;;;;;;13.60;99.90;;;;;;5042647;28;20552;-58
2023/07/04 02:13:20;;;;;;;12.80;3.00;;;13.60;99.90;;;;;;5039293;28;19927;-59
2023/07/04 02:15:46;;;;;;;;;;;13.60;99.90;;;;;;5042669;28;20576;-56
2023/07/04 02:18:11;;;;;;;9.95;2.90;;;13.50;99.90;;;;;;5037693;28;20032;-55
2023/07/04 02:20:37;;;;;;;;;;;13.40;99.90;;;;;;5046726;28;20051;-59
2023/07/04 02:23:02;;;;;;;7.40;2.30;;;13.30;99.90;;;;;;5035446;28;19924;-58
2023/07/04 02:25:28;;;;;;;;;;;13.30;99.90;;;;;;5042973;28;20161;-60
2023/07/04 02:27:54;;;;;;;8.95;2.92;;;13.30;99.90;;;;;;5039069;28;19928;-56
2023/07/04 02:30:19;;;;;;;;;;;13.30;99.90;;;;;;5038467;28;20374;-54
2023/07/04 02:32:45;;;;;;;13.20;2.95;;;13.30;99.90;;;;;;5040907;28;19987;-61
2023/07/04 02:35:10;;;;;;;;;;;13.20;99.90;;;;;;5040418;28;20548;-59
2023/07/04 02:37:36;;;;;;;12.45;3.70;;;13.30;99.90;;;;;;5036780;28;20404;-59
2023/07/04 02:40:02;;;;;;;10.00;3.38;;;13.30;99.90;;;;;;5041818;28;20055;-57
2023/07/04 02:42:28;;;;;;;14.98;3.10;;;13.30;99.90;;;;;;5039935;28;20042;-57
2023/07/04 02:44:53;;;;;;;;;;;13.20;99.90;;;;;;5038674;28;20549;-58
2023/07/04 02:47:23;;;;;;;14.40;3.08;;;13.20;99.90;;;;;;5036813;28;20012;-58
2023/07/04 02:49:48;;;;;;;9.30;3.00;;;13.10;99.90;;;;;;5035533;28;20033;-54
2023/07/04 02:52:14;;;;;;;;;;;13.10;99.90;;;;;;5041636;28;20504;-58
2023/07/04 02:54:39;;;;;;;11.73;2.83;;;13.10;99.90;;;;;;5040267;28;19923;-59
2023/07/04 02:57:05;;;;;;;8.65;2.75;;;13.10;99.90;;;;;;5041074;28;20519;-55
2023/07/04 02:59:31;;;;;;;13.68;3.22;;;13.10;99.90;;;;;;5037936;28;20086;-52
2023/07/04 03:01:56;;;;;;;;;;;13.00;99.90;;;;;;5037752;28;20036;-56
2023/07/04 03:04:22;;;;;;;14.20;3.00;;;13.00;99.90;;;;;;5033730;28;19917;-57
2023/07/04 03:06:47;;;;;;;12.25;3.00;;;13.10;99.90;;;;;;5036024;28;20657;-54
2023/07/04 03:09:13;;;;;;;;;;;13.00;99.90;;;;;;5038002;28;20029;-58
2023/07/04 03:11:39;;;;;;;15.07;2.75;;;12.90;99.90;;;;;;5039308;28;19921;-58
2023/07/04 03:14:04;;;;;;;;;;;12.90;99.90;;;;;;5034113;28;20587;-56
2023/07/04 03:16:30;;;;;;;16.73;3.08;;;13.00;99.90;;;;;;5039419;28;19920;-59
2023/07/04 03:18:55;;;;;;;11.27;2.78;;;12.90;99.90;;;;;;5036083;28;20875;-58
2023/07/04 03:21:21;;;;;;;11.60;2.65;;;12.90;99.90;;;;;;5044468;28;20041;-58
2023/07/04 03:24:02;;;;;;;9.00;2.60;;;12.90;99.90;;;;;;5043889;28;20047;-60
2023/07/04 03:26:34;;;;;;;;;;;12.80;99.90;;;;;;5040429;28;20037;-57
2023/07/04 03:29:02;;;;;;;17.98;3.17;;;12.80;99.90;;;;;;5029169;28;19921;-56
2023/07/04 03:31:28;;;;;;;12.98;3.45;;;12.90;99.90;;;;;;5018981;28;20041;-57
2023/07/04 03:33:53;;;;;;;;;;;12.90;99.90;;;;;;5018423;28;20425;-59
2023/07/04 03:36:20;;;;;;;11.77;3.53;;;12.80;99.90;;;;;;5027520;28;19920;-60
2023/07/04 03:38:45;;;;;;;18.42;3.78;;;12.70;99.90;;;;;;5023025;28;20037;-59
2023/07/04 03:41:11;;;;;;;;;;;12.70;99.90;;;;;;5026776;28;20397;-60
2023/07/04 03:43:36;;;;;;;10.98;3.10;;;12.70;99.90;;;;;;5022717;28;19920;-53
2023/07/04 03:46:02;;;;;;;11.23;2.95;;;12.70;99.90;;;;;;5031815;28;20650;-59
2023/07/04 03:48:28;;;;;;;15.85;3.35;;;12.80;99.90;;;;;;5028605;28;20045;-58
2023/07/04 03:50:54;;;;;;;;;;;12.80;99.90;;;;;;5028848;28;20091;-58
2023/07/04 03:53:19;;;;;;;11.20;3.03;;;12.90;99.90;;;;;;5036554;28;19938;-58
2023/07/04 03:55:45;;;;;;;;;;;12.90;99.90;;;;;;5030816;28;20076;-62
2023/07/04 03:58:11;;;;;;;11.60;3.22;;;12.90;99.90;;;;;;5035630;28;20301;-58
2023/07/04 04:00:36;;;;;;;13.10;3.20;;;12.90;99.90;;;;;;5032160;28;20064;-57
2023/07/04 04:03:02;;;;;;;;;;;12.90;99.90;;;;;;5033944;28;20061;-60
2023/07/04 04:05:28;;;;;;;9.63;2.90;;;12.90;99.90;;;;;;5033377;28;19920;-58
2023/07/04 04:07:54;;;;;;;9.57;3.65;;;12.90;99.90;;;;;;5030756;28;20083;-53
2023/07/04 04:10:20;;;;;;;;;;;12.90;99.90;;;;;;5036416;28;20041;-60
2023/07/04 04:12:45;;;;;;;16.85;3.38;;;12.80;99.90;;;;;;5031093;28;19927;-58
2023/07/04 04:15:11;;;;;;;;;;;12.80;99.90;;;;;;5040315;28;20044;-60
2023/07/04 04:17:40;;;;;;;12.43;3.28;;;12.80;99.90;;;;;;5032996;28;19928;-60
2023/07/04 04:20:06;;;;;;;12.18;3.45;;;12.90;99.90;;;;;;5039150;28;20037;-57
2023/07/04 04:22:33;;;;;;;15.25;3.60;;;12.80;99.90;;;;;;5036695;28;20448;-59
2023/07/04 04:24:59;;;;;;;16.67;3.22;;;12.80;99.90;;;;;;5036291;28;20405;-60
2023/07/04 04:27:30;;;;;;;;;;;12.80;99.90;;;;;;5039231;28;20049;-55
2023/07/04 04:29:56;;;;;;;14.27;3.75;;;12.80;99.90;;;;;;5037324;28;20042;-60
2023/07/04 04:32:24;;;;;;;;;;;12.90;99.90;;;;;;5034476;28;20045;-54
2023/07/04 04:34:50;;;;;;;14.98;3.47;;;12.80;99.90;;;;;;5037617;28;19924;-54
2023/07/04 04:37:16;;;;;;;;;;;12.90;99.90;;;;;;5038624;28;20040;-55
2023/07/04 04:39:43;;;;;;;17.38;4.60;;;13.10;99.90;;;;;;5037924;28;19916;-54
2023/07/04 04:42:14;;;;;;;13.10;3.70;;;13.20;99.90;;;;;;5036739;28;20072;-60
2023/07/04 04:44:40;;;;;;;12.02;3.55;;;13.10;99.90;;;;;;5034526;28;20147;-57
2023/07/04 04:47:07;;;;;;;12.73;3.50;;;13.10;99.90;;;;;;5037708;28;21236;-59
2023/07/04 04:49:35;;;;;;;13.40;4.10;;;13.20;99.90;;;;;;5032224;28;20116;-59
2023/07/04 04:52:01;;;;;;;14.18;4.15;;;13.20;99.90;;;;;;5035922;28;20029;-58
2023/07/04 04:54:27;;;;;;;;;;;13.20;99.90;;;;;;5038041;28;20931;-56
2023/07/04 04:56:53;;;;;;;14.23;3.95;;;13.20;99.90;;;;;;5035178;28;19921;-58
2023/07/04 04:59:18;;;;;;;;;;;13.20;99.90;;;;;;5034743;28;20108;-60
2023/07/04 05:01:45;;;;;;;15.55;3.65;;;13.40;99.90;;;;;;5039948;28;20437;-55
2023/07/04 05:04:10;;;;;;;12.23;4.10;;;13.40;99.90;;;;;;5035660;28;20095;-53
2023/07/04 05:06:36;;;;;;;;;;;13.30;99.90;;;;;;5040233;28;20045;-57
2023/07/04 05:09:02;;;;;;;12.73;3.42;;;13.30;99.90;;;;;;5035971;28;19927;-55
2023/07/04 05:11:28;;;;;;;;;;;13.40;99.90;;;;;;5037652;28;20116;-59
2023/07/04 05:13:53;;;;;;;12.23;3.80;;;13.40;99.90;;;;;;5040487;28;20397;-58
2023/07/04 05:16:21;;;;;;;14.70;4.28;;;13.40;99.90;;;;;;5039098;28;20040;-57
2023/07/04 05:18:48;;;;;;;15.73;4.65;;;13.40;99.90;;;;;;5037248;28;20065;-57
2023/07/04 05:21:17;;;;;;;16.77;4.82;;;13.40;99.90;;;;;;5041084;28;20475;-62
2023/07/04 05:23:46;;;;;;;11.80;4.35;;;13.40;99.90;;;;;;5040712;28;20501;-56
2023/07/04 05:26:30;;;;;;;21.17;5.13;;;13.50;99.90;;;;;;5037701;28;20071;-59
2023/07/04 05:28:58;;;;;;;20.13;5.18;;;13.50;99.90;;;;;;5038555;28;20041;-56
2023/07/04 05:31:29;;;;;;;18.92;5.05;;;13.60;99.90;;;;;;5040155;28;20043;-59
2023/07/04 05:33:56;;;;;;;20.10;5.30;;;13.70;99.90;;;;;;5038458;28;20048;-61
2023/07/04 05:36:24;;;;;;;16.92;5.43;;;13.60;99.90;;;;;;5040957;28;20118;-57
2023/07/04 05:38:51;;;;;;;14.85;4.65;;;13.60;99.90;;;;;;5032892;28;20053;-60
2023/07/04 05:41:19;;;;;;;13.45;5.65;;;13.70;99.90;;;;;;5042005;28;20059;-56
2023/07/04 05:43:45;;;;;;;15.10;5.28;;;13.70;99.90;;;;;;5038101;28;20642;-59
2023/07/04 05:46:13;;;;;;;15.98;4.70;;;13.50;99.90;;;;;;5040478;28;20053;-57
2023/07/04 05:48:39;;;;;;;19.60;4.95;;;13.50;99.90;;;;;;5035461;28;20511;-56
2023/07/04 05:51:06;;;;;;;;;;;13.40;99.90;;;;;;5043281;28;20033;-60
2023/07/04 05:53:33;;;;;;;12.70;5.32;;;13.30;99.90;;;;;;5033570;28;19959;-56
2023/07/04 05:56:15;;;;;;;18.95;6.28;;;13.30;99.90;;;;;;5040531;28;20064;-57
2023/07/04 05:58:47;;;;;;;11.27;4.90;;;13.40;99.90;;;;;;5030282;28;20053;-58
2023/07/04 06:01:23;;;;;;;12.75;4.95;;;13.60;99.90;;;;;;5035624;28;20566;-55
2023/07/04 06:03:49;;;;;;;10.23;4.45;;;13.60;99.90;;;;;;5038235;28;20056;-49
2023/07/04 06:06:21;;;;;;;18.13;7.00;;;13.60;99.90;;;;;;5039089;28;20547;-59
2023/07/04 06:08:48;;;;;;;18.50;5.85;;;13.60;99.90;;;;;;5039472;28;20769;-59
2023/07/04 06:11:15;;;;;;;24.77;6.28;;;13.70;99.90;;;;;;5038218;28;20037;-56
2023/07/04 06:13:41;;;;;;;17.75;5.25;;;13.70;99.90;;;;;;5038857;28;20132;-57
2023/07/04 06:16:07;;;;;;;;;;;13.90;99.90;;;;;;5040129;28;20040;-53
2023/07/04 06:18:34;;;;;;;14.90;5.90;;;14.10;99.90;;;;;;5033486;28;20020;-58
2023/07/04 06:21:11;;;;;;;14.98;5.57;;;14.30;99.90;;;;;;5042120;28;20036;-51
2023/07/04 06:23:37;;;;;;;16.50;5.68;;;14.50;99.90;;;;;;5034695;28;20072;-53
2023/07/04 06:26:05;;;;;;;11.50;5.15;;;14.70;99.90;;;;;;5036812;28;20044;-57
2023/07/04 06:28:31;;;;;;;13.40;5.75;;;14.60;99.90;;;;;;5037764;28;20076;-60
2023/07/04 06:30:57;;;;;;;18.55;5.88;;;14.50;99.90;;;;;;5035630;28;20112;-57
2023/07/04 06:33:22;;;;;;;;;;;14.30;99.90;;;;;;5041013;28;20148;-58
2023/07/04 06:35:48;;;;;;;20.30;6.00;;;14.40;99.90;;;;;;5035194;28;19970;-60
2023/07/04 06:38:13;;;;;;;;;;;14.70;99.90;;;;;;5037571;28;20036;-54
2023/07/04 06:40:40;;;;;;;15.50;5.82;;;15.00;99.90;;;;;;5040429;28;19913;-60
2023/07/04 06:43:06;;;;;;;19.58;5.60;;;15.00;99.90;;;;;;5040353;28;20048;-57
2023/07/04 06:45:32;;;;;;;;;;;14.90;99.90;;;;;;5035132;28;20090;-54
2023/07/04 06:47:58;;;;;;;18.27;5.57;;;14.90;99.90;;;;;;5036765;28;19921;-60
2023/07/04 06:50:24;;;;;;;16.55;5.53;;;15.00;99.90;;;;;;5045982;28;20071;-59
2023/07/04 06:52:49;;;;;;;;;;;15.10;99.90;;;;;;5035361;28;20146;-57
2023/07/04 06:55:15;;;;;;;14.55;4.53;;;15.40;99.90;;;;;;5040638;28;19963;-58
2023/07/04 06:57:41;;;;;;;13.75;4.60;;;15.80;99.90;;;;;;5037891;28;20045;-56
2023/07/04 07:00:06;;;;;;;;;;;16.10;99.90;;;;;;5038069;28;20083;-59
2023/07/04 07:02:32;;;;;;;9.95;4.18;;;16.00;99.90;;;;;;5037415;28;19925;-55
2023/07/04 07:04:58;;;;;;;12.20;4.25;;;15.70;99.90;;;;;;5038069;28;20148;-57
2023/07/04 07:07:25;;;;;;;15.52;3.90;;;15.60;99.90;;;;;;5040922;28;20041;-57
2023/07/04 07:09:50;;;;;;;11.25;3.90;;;15.60;99.90;;;;;;5038323;28;20049;-54
2023/07/04 07:12:15;;;;;;;;;;;15.70;99.90;;;;;;5037550;28;20480;-58
2023/07/04 07:14:41;;;;;;;11.07;4.00;;;15.70;99.90;;;;;;5040925;28;19959;-57
2023/07/04 07:17:07;;;;;;;;;;;15.80;99.90;;;;;;5041236;28;20051;-60
2023/07/04 07:19:33;;;;;;;12.70;4.35;;;15.90;99.90;;;;;;5038000;28;19928;-56
2023/07/04 07:22:00;;;;;;;11.68;3.70;;;16.10;99.90;;;;;;5039357;28;20079;-54
2023/07/04 07:24:27;;;;;;;11.80;3.92;;;16.20;99.90;;;;;;5034673;28;20445;-56
2023/07/04 07:26:53;;;;;;;9.43;3.20;;;16.30;99.90;;;;;;5041400;28;20103;-54
2023/07/04 07:29:19;;;;;;;;;;;16.90;99.80;;;;;;5041940;28;20036;-53
2023/07/04 07:31:44;;;;;;;12.40;4.22;;;17.00;99.30;;;;;;5040188;28;20556;-58
2023/07/04 07:34:10;;;;;;;8.27;3.22;;;17.10;98.50;;;;;;5043620;28;20048;-59
2023/07/04 07:36:41;;;;;;;10.70;3.78;;;17.30;98.40;;;;;;5043271;28;20045;-56
2023/07/04 07:39:09;;;;;;;14.52;3.95;;;17.40;97.50;;;;;;5042899;28;20040;-51
2023/07/04 07:41:39;;;;;;;11.98;3.88;;;17.40;97.80;;;;;;5042414;28;20053;-60
2023/07/04 07:44:06;;;;;;;14.40;3.90;;;18.00;97.10;;;;;;5034041;28;20051;-53
2023/07/04 07:46:31;;;;;;;16.35;4.18;;;18.20;96.60;;;;;;5044535;28;20123;-56
2023/07/04 07:48:57;;;;;;;8.40;4.07;;;17.50;97.50;;;;;;5044167;28;20045;-61
2023/07/04 07:51:23;;;;;;;11.52;3.85;;;17.50;98.40;;;;;;5045949;28;20037;-61
2023/07/04 07:53:53;;;;;;;11.52;4.05;;;17.80;96.70;;;;;;5036266;28;20124;-53
2023/07/04 07:56:20;;;;;;;10.25;3.55;;;18.60;95.50;;;;;;5035331;28;20044;-59
2023/07/04 07:58:47;;;;;;;10.95;4.72;;;19.50;93.90;;;;;;5042266;28;20094;-58
2023/07/04 08:01:18;;;;;;;15.82;4.00;;;20.30;92.50;;;;;;5044453;28;20071;-61
2023/07/04 08:03:45;;;;;;;8.88;3.90;;;21.10;91.20;;;;;;5033576;28;20048;-60
2023/07/04 08:06:21;;;;;;;13.00;3.72;;;21.20;90.70;;;;;;5041467;28;20057;-55
2023/07/04 08:08:47;;;;;;;8.98;4.05;;;21.10;90.70;;;;;;5039883;28;20132;-57
2023/07/04 08:11:13;;;;;;;11.60;3.83;;;20.80;90.40;;;;;;5043122;28;20572;-48
2023/07/04 08:13:39;;;;;;;8.55;3.95;;;20.30;92.00;;;;;;5040667;28;20045;-56
2023/07/04 08:16:05;;;;;;;9.75;4.03;;;20.20;91.70;;;;;;5039392;28;20124;-57
2023/07/04 08:18:31;;;;;;;8.50;3.67;;;20.20;90.60;;;;;;5041060;28;20040;-59
2023/07/04 08:20:58;;;;;;;9.15;4.05;;;19.30;92.30;;;;;;5043894;28;20662;-59
2023/07/04 08:23:24;;;;;;;11.30;4.15;;;19.50;92.40;;;;;;5044767;28;20041;-56
2023/07/04 08:25:50;;;;;;;12.13;4.82;;;19.50;92.20;;;;;;5034876;28;20775;-59
2023/07/04 08:28:17;;;;;;;15.70;4.55;;;19.20;94.20;;;;;;5043275;28;20029;-57
2023/07/04 08:30:43;;;;;;;12.10;4.85;;;18.70;94.00;;;;;;5044043;28;20037;-57
2023/07/04 08:33:09;;;;;;;13.95;5.50;;;18.00;95.20;;;;;;5041773;28;20045;-58
2023/07/04 08:35:35;;;;;;;16.13;4.88;;;18.00;95.70;;;;;;5043340;28;20303;-54
2023/07/04 08:38:00;;;;;;;15.23;5.05;;;17.40;96.30;;;;;;5035031;28;20040;-53
2023/07/04 08:40:26;;;;;;;18.15;5.25;;;17.50;97.50;;;;;;5042870;28;20374;-56
2023/07/04 08:42:52;;;;;;;11.88;4.95;;;17.50;96.60;;;;;;5042918;28;20033;-58
2023/07/04 08:45:28;;;;;;;10.45;4.97;;;17.70;97.00;;;;;;5036625;28;20040;-55
2023/07/04 08:47:55;;;;;;;10.90;4.28;;;18.00;96.00;;;;;;5039758;28;20049;-58
2023/07/04 08:50:33;;;;;;;9.45;3.85;;;18.50;95.10;;;;;;5042528;28;20041;-55
2023/07/04 08:53:05;;;;;;;12.27;4.25;;;18.80;94.50;;;;;;5039882;28;20045;-57
2023/07/04 08:55:33;;;;;;;8.68;3.85;;;19.50;94.20;;;;;;5041012;28;20508;-58
2023/07/04 08:58:01;;;;;;;11.18;3.85;;;20.20;91.80;;;;;;5037853;28;20053;-57
2023/07/04 09:00:39;;;;;;;9.63;3.53;;;20.60;91.40;;;;;;5031005;28;20128;-56
2023/07/04 09:03:18;;;;;;;14.75;4.90;;;20.50;90.80;;;;;;5017847;28;20431;-58
2023/07/04 09:06:05;;;;;;;9.93;4.10;;;19.80;91.70;;;;;;5020054;28;20057;-54
2023/07/04 09:08:45;;;;;;;11.40;4.25;;;19.20;93.40;;;;;;5018844;28;20056;-61
2023/07/04 09:11:12;;;;;;;11.30;4.18;;;18.90;94.10;;;;;;5017939;28;20049;-50
2023/07/04 09:14:01;;;;;;;10.68;4.30;;;18.60;94.70;;;;;;5018393;28;20122;-61
2023/07/04 09:16:36;;;;;;;13.13;4.00;;;18.20;95.40;;;;;;5016436;28;20045;-55
2023/07/04 09:19:07;;;;;;;18.20;3.67;;;18.00;96.20;;;;;;5015104;28;20127;-59
2023/07/04 09:21:34;;;;;;;9.75;3.95;;;18.10;95.80;;;;;;5022173;28;20037;-53
2023/07/04 09:24:01;;;;;;;12.30;3.60;;;17.90;96.00;;;;;;5009207;28;20044;-58
2023/07/04 09:26:49;;;;;;;9.32;4.20;;;18.00;96.00;;;;;;5023019;28;20045;-53
2023/07/04 09:29:21;;;;;;;10.13;3.83;;;18.10;95.50;;;;;;5022933;28;20041;-57
2023/07/04 09:31:55;;;;;;;10.48;4.15;;;17.80;95.70;;;;;;5018467;28;20042;-54
2023/07/04 09:34:40;;;;;;;15.23;4.95;;;17.70;95.90;;;;;;5013130;28;20039;-59
2023/07/04 09:37:13;;;;;;;11.75;4.30;;;17.40;95.70;;;;;;5016168;28;20056;-59
2023/07/04 09:39:45;;;;;;;10.85;4.55;;;17.70;96.20;;;;;;5012403;28;20033;-58
2023/07/04 09:42:11;;;;;;;13.10;4.30;;;17.60;95.40;;;;;;5012936;28;20112;-56
2023/07/04 09:44:38;;;;;;;;;;;17.80;95.10;;;;;;5011871;28;20124;-57
2023/07/04 09:47:05;;;;;;;11.60;4.25;;;17.90;95.10;;;;;;5014368;28;20011;-59
2023/07/04 09:49:36;;;;;;;8.02;3.58;;;18.30;95.20;;;;;;5010830;28;20535;-57
2023/07/04 09:52:16;;;;;;;8.73;3.92;;;18.30;94.60;;;;;;5016871;28;20049;-58
2023/07/04 09:54:42;;;;;;;10.93;3.95;;;18.20;94.60;;;;;;5020249;28;20044;-54
2023/07/04 09:57:21;;;;;;;10.93;3.83;;;18.10;95.60;;;;;;5009349;28;20457;-55
2023/07/04 09:59:47;;;;;;;8.60;4.53;;;18.10;95.20;;;;;;5005081;28;20055;-49
2023/07/04 10:02:28;;;;;;;;;;;18.10;95.00;;;;;;5002528;28;20045;-52
2023/07/04 10:04:54;;;;;;;14.63;4.47;;;18.10;94.80;;;;;;5005992;28;19917;-58
2023/07/04 10:07:21;;;;;;;;;;;18.10;95.00;;;;;;5016634;28;20056;-54
2023/07/04 10:09:58;;;;;;;8.50;3.95;;;18.30;95.30;;;;;;5007242;28;20027;-55
2023/07/04 10:12:26;;;;;;;9.30;4.32;;;18.50;94.40;;;;;;5010082;28;20057;-58
2023/07/04 10:14:57;;;;;;;9.07;3.97;;;18.50;94.80;;;;;;5007289;28;20053;-53
2023/07/04 10:17:32;;;;;;;10.75;4.20;;;18.70;95.40;;;;;;5007585;28;20464;-52
2023/07/04 10:20:04;;;;;;;9.40;3.50;;;18.80;94.70;;;;;;5016071;28;20041;-56
2023/07/04 10:22:38;;;;;;;10.88;4.05;;;18.90;94.60;;;;;;5014048;28;20056;-58
2023/07/04 10:25:12;;;;;;;13.77;3.55;;;18.80;94.30;;;;;;5016800;28;20052;-57
2023/07/04 10:27:40;;;;;;;12.57;4.60;;;18.80;93.40;;;;;;5004437;28;20064;-62
2023/07/04 10:30:16;;;;;;;12.77;4.00;;;18.80;92.60;;;;;;5013902;28;20957;-60
2023/07/04 10:32:46;;;;;;;9.65;4.03;;;18.90;93.30;;;;;;5031703;28;20043;-57
2023/07/04 10:35:18;;;;;;;9.98;3.88;;;19.00;93.00;;;;;;5028641;28;20069;-58
2023/07/04 10:37:51;;;;;;;10.95;3.88;;;19.10;93.60;;;;;;5037813;28;20461;-58
2023/07/04 10:40:19;;;;;;;11.95;4.70;;;19.00;92.60;;;;;;5036982;28;20040;-57
2023/07/04 10:43:01;;;;;;;11.25;4.20;;;19.00;93.20;;;;;;5026621;28;20040;-61
2023/07/04 10:45:28;;;;;;;9.10;4.00;;;18.90;92.00;;;;;;5031328;28;20103;-58
2023/07/04 10:47:59;;;;;;;10.75;4.15;;;19.10;92.20;;;;;;5032083;28;20393;-58
2023/07/04 10:50:29;;;;;;;9.93;4.70;;;19.10;92.50;;;;;;5035165;28;20227;-54
2023/07/04 10:52:55;;;;;;;11.13;4.93;;;19.20;92.80;;;;;;5028483;28;20425;-55
2023/07/04 10:55:56;;;;;;;;;;;19.30;93.00;;;;;;5036281;28;20048;-61
2023/07/04 10:58:24;;;;;;;8.77;4.20;;;19.30;92.90;;;;;;5034421;28;20737;-60
2023/07/04 11:01:01;;;;;;;10.45;4.30;;;19.30;92.70;;;;;;5035757;28;20037;-56
2023/07/04 11:03:48;;;;;;;15.32;4.22;;;19.30;91.40;;;;;;5026786;28;20501;-57
2023/07/04 11:06:22;;;;;;;8.40;4.07;;;19.40;92.50;;;;;;5024362;28;20081;-57
2023/07/04 11:08:50;;;;;;;13.98;4.47;;;19.40;91.80;;;;;;5022860;28;20415;-59
2023/07/04 11:11:25;;;;;;;13.02;3.85;;;19.50;91.30;;;;;;5028505;28;20401;-58
2023/07/04 11:13:55;;;;;;;16.95;3.92;;;19.30;91.10;;;;;;5039906;28;20038;-59
2023/07/04 11:16:27;;;;;;;10.65;3.80;;;19.20;91.80;;;;;;5030844;28;20445;-54
2023/07/04 11:19:04;;;;;;;9.40;4.07;;;19.20;92.40;;;;;;5031647;28;20045;-59
2023/07/04 11:21:30;;;;;;;11.00;4.13;;;19.20;92.00;;;;;;5027172;28;20037;-58
2023/07/04 11:24:15;;;;;;;12.30;4.65;;;19.30;91.20;;;;;;5026017;28;20060;-56
2023/07/04 11:26:59;;;;;;;11.23;4.07;;;19.30;92.00;;;;;;5031109;28;20496;-58
2023/07/04 11:29:24;;;;;;;7.35;3.80;;;19.30;90.60;;;;;;5032753;28;20117;-60
2023/07/04 11:32:16;;;;;;;;;;;19.60;91.60;;;;;;5031817;28;20041;-57
2023/07/04 11:34:46;;;;;;;9.70;4.22;;;19.40;90.30;;;;;;5026784;28;19921;-57
2023/07/04 11:37:24;;;;;;;10.40;4.60;;;19.40;92.20;;;;;;5013958;28;20537;-58
2023/07/04 11:39:56;;;;;;;14.27;4.38;;;19.50;90.10;;;;;;5019227;28;20133;-60
2023/07/04 11:42:37;;;;;;;9.57;3.65;;;19.60;90.60;;;;;;5015448;28;20502;-56
2023/07/04 11:45:07;;;;;;;9.15;3.67;;;19.70;89.90;;;;;;5020597;28;20053;-58
2023/07/04 11:47:40;;;;;;;7.72;3.38;;;19.80;90.60;;;;;;5019844;28;20050;-55
2023/07/04 11:50:17;;;;;;;9.35;3.70;;;19.80;89.40;;;;;;5019868;28;20504;-55
2023/07/04 11:52:49;;;;;;;10.10;4.13;;;19.80;90.90;;;;;;5019119;28;20048;-58
2023/07/04 11:55:21;;;;;;;6.53;3.70;;;19.70;90.50;;;;;;5021606;28;20076;-59
2023/07/04 11:58:08;;;;;;;9.18;3.97;;;19.70;91.20;;;;;;5020049;28;20045;-54
2023/07/04 12:00:39;;;;;;;12.30;3.90;;;19.70;91.60;;;;;;5020676;28;20049;-57
2023/07/04 12:03:16;;;;;;;9.95;3.90;;;19.70;89.20;;;;;;5009929;28;20042;-58
2023/07/04 12:05:51;;;;;;;7.82;3.67;;;19.60;90.40;;;;;;5007198;28;20433;-55
2023/07/04 12:08:30;;;;;;;19.90;4.13;;;19.60;90.50;;;;;;5010071;28;20486;-58
2023/07/04 12:11:01;;;;;;;8.98;4.15;;;19.70;90.50;;;;;;5014255;28;20136;-55
2023/07/04 12:13:30;;;;;;;13.45;4.40;;;19.60;88.20;;;;;;5011126;28;20062;-57
2023/07/04 12:15:57;;;;;;;11.95;4.47;;;19.60;90.40;;;;;;5015285;28;20121;-56
2023/07/04 12:18:27;;;;;;;10.10;3.88;;;19.80;90.00;;;;;;5026530;28;20081;-61
2023/07/04 12:20:54;;;;;;;6.15;3.65;;;19.90;90.00;;;;;;5010376;28;20069;-54
2023/07/04 12:23:20;;;;;;;9.98;4.25;;;19.80;89.20;;;;;;5013272;28;20095;-59
2023/07/04 12:25:48;;;;;;;9.52;4.13;;;20.00;91.30;;;;;;5022539;28;20041;-58
2023/07/04 12:28:16;;;;;;;10.25;4.30;;;20.10;90.10;;;;;;5020654;28;20116;-60
2023/07/04 12:30:50;;;;;;;13.55;4.40;;;19.80;90.10;;;;;;5018103;28;20034;-57
2023/07/04 12:33:23;;;;;;;7.82;4.00;;;19.80;85.70;;;;;;4995842;28;20041;-57
2023/07/04 12:35:55;;;;;;;10.07;4.13;;;20.00;87.20;;;;;;5012023;28;20045;-59
2023/07/04 12:38:25;;;;;;;11.50;4.28;;;20.00;85.90;;;;;;5014053;28;20104;-59
2023/07/04 12:40:52;;;;;;;12.82;4.55;;;20.10;87.30;;;;;;5029218;28;20042;-60
2023/07/04 12:43:20;;;;;;;12.52;5.20;;;20.10;87.40;;;;;;5016339;28;20077;-53
2023/07/04 12:45:46;;;;;;;9.10;4.07;;;20.10;85.90;;;;;;5015865;28;20056;-58
2023/07/04 12:48:13;;;;;;;10.95;4.00;;;20.20;88.10;;;;;;5012075;28;20045;-57
2023/07/04 12:50:52;;;;;;;15.60;3.83;;;20.30;87.20;;;;;;5014070;28;20645;-56
2023/07/04 12:53:19;;;;;;;9.57;3.78;;;20.10;85.60;;;;;;5012430;28;20038;-60
2023/07/04 12:55:45;;;;;;;7.85;3.92;;;20.00;86.10;;;;;;5017741;28;20041;-57
2023/07/04 12:58:13;;;;;;;9.13;4.25;;;20.10;86.60;;;;;;5015641;28;21087;-60
2023/07/04 13:01:05;;;;;;;9.15;4.00;;;19.90;84.70;;;;;;5014939;28;20072;-59
2023/07/04 13:03:31;;;;;;;10.35;4.47;;;20.00;84.80;;;;;;5012614;28;20136;-61